Stunt Ranch Reserve, Santa Monica Mtns, California Weather observations

Data are for 10 minute period ending at time listed.
 Day   Time   Solar   Ave.   Ave.  Ave.  Vector  Max.   Baro.   Total    
  of    of     Rad.   Air    Rel.  Wind   Wind   Wind  Press.  Precip.   
Year   Day            Temp.  Hum.  Speed  Dir.   Gust                    
2026   (PST)  Kw/m2    F      %     mph   deg.    mph    mb.     in.     
-------------------------------------------------------------------------
 125   11:40   0.27   62.7    50    4.2   188    10.4   968.9    0.00 
 125   11:50   0.41   63.0    51    3.3   161     8.2   968.8    0.00 
 125   12:00   0.59   63.6    52    4.9   149    13.1   968.7    0.00 
 125   12:10   0.87   64.1    49    4.7   132    14.1   968.7    0.00 
 125   12:20   1.02   66.6    45    3.2   215     9.3   968.6    0.00 
 125   12:30   0.64   66.4    47    3.9   230     9.7   968.7    0.00 
 125   12:40   0.11   61.8    51    5.3   219    14.4   968.8    0.00 
 125   12:50   0.08   60.2    54    1.4   240     3.9   968.9    0.00 
 125   13:00   0.11   59.1    60    2.3   170     7.0   968.9    0.00 
 125   13:10   0.05   58.0    63    4.5   169    11.1   968.9    0.00 
 125   13:20   0.08   57.4    62    4.8   169    10.1   968.9    0.00 
 125   13:30   0.16   57.9    60    3.9   179    10.5   968.9    0.00 
 125   13:40   0.57   60.1    55    2.5   168     8.8   968.7    0.00 
 125   13:50   0.87   64.5    47    2.2   264     6.5   968.6    0.00 
 125   14:00   0.69   68.8    43    1.9   275     7.7   968.5    0.00 
 125   14:10   0.86   70.0    42    1.8   234     6.5   968.6    0.00 
 125   14:20   0.60   67.7    46    2.3   189     6.9   968.6    0.00 
 125   14:30   0.42   63.8    52    3.7   168    11.8   968.5    0.00 
 125   14:40   0.32   63.8    50    2.7   221     6.5   968.3    0.00 
 125   14:50   0.41   63.6    52    5.3   156    14.8   968.2    0.00 
 125   15:00   0.39   63.0    52    7.5   140    12.9   968.2    0.00 
 125   15:10   0.53   63.3    53    8.0   151    13.9   968.0    0.00 
 125   15:20   0.23   62.7    55    6.2   159    10.5   968.0    0.00 
 125   15:30   0.34   62.2    57    6.3   146    14.1   968.1    0.00 
 125   15:40   0.39   61.4    58    5.5   148    13.7   968.1    0.00 
 125   15:50   0.27   63.3    53    1.6   113     4.1   968.1    0.00 
 125   16:00   0.15   62.4    54    2.2   344     5.5   968.1    0.00 
 125   16:10   0.12   63.2    52    1.8   320     4.8   968.1    0.00 
 125   16:20   0.14   63.9    50    1.9   303     5.0   968.2    0.00 
 125   16:30   0.15   64.3    51    1.6   288     6.1   968.3    0.00 
 125   16:40   0.21   64.8    50    1.5   287     3.8   968.2    0.00 
 125   16:50   0.34   65.4    48    2.3   295     6.7   968.2    0.00 
 125   17:00   0.10   65.4    49    1.7   286     7.6   968.4    0.00 
 125   17:10   0.11   64.1    51    1.1   290     4.1   968.4    0.00 
 125   17:20   0.15   63.7    53    1.4   289     4.1   968.4    0.00 
 125   17:30   0.25   64.2    52    3.0   299     7.8   968.5    0.00 
 125   17:40   0.19   63.8    54    2.3   282     8.1   968.6    0.00 
 125   17:50   0.14   61.9    56    2.7   291     8.0   968.6    0.00 
 125   18:00   0.07   60.6    59    2.0   313     6.3   968.6    0.00 
 125   18:10   0.02   59.4    61    1.1   304     4.4   968.7    0.00 
 125   18:20   0.02   58.4    63    0.7   286     3.7   968.7    0.00 
 125   18:30   0.01   57.8    64    0.1   258     1.2   968.8    0.00 
 125   18:40   0.01   57.2    65    0.3   324     1.8   968.9    0.00 
 125   18:50   0.00   57.4    64    0.0   207     0.4   969.1    0.00 
 125   19:00   0.00   57.5    63    1.1   182     2.2   969.2    0.00 
 125   19:10   0.00   57.2    64    2.2   189     3.1   969.2    0.00 
 125   19:20   0.00   56.6    65    0.7   220     1.9   969.4    0.00 
 125   19:30   0.00   56.2    66    0.3   116     1.5   969.6    0.00 
 125   19:40   0.00   55.9    66    0.4   118     1.2   969.8    0.00 
 125   19:50   0.00   56.1    66    0.6   192     1.7   970.0    0.00 
 125   20:00   0.00   55.7    67    0.7   199     2.1   970.1    0.00 
 125   20:10   0.00   55.5    67    2.5   196     3.9   970.2    0.00 
 125   20:20   0.00   55.1    67    3.2   185     4.2   970.1    0.00 
 125   20:30   0.00   54.6    68    2.7   165     4.6   970.1    0.00 
 125   20:40   0.00   54.0    69    2.6   196     4.5   970.2    0.00 
 125   20:50   0.00   54.2    69    2.6   256     4.1   970.3    0.00 
 125   21:00   0.00   53.8    70    1.1   252     3.4   970.5    0.00 
 125   21:10   0.00   53.5    72    1.9   155     2.6   970.6    0.00 
 125   21:20   0.00   53.3    72    2.1   175     3.1   970.7    0.00 
 125   21:30   0.00   53.5    71    1.7   164     2.3   970.9    0.00 
 125   21:40   0.00   53.2    72    1.8   161     2.9   971.0    0.00 
 125   21:50   0.00   53.6    71    1.2   185     3.1   971.0    0.00 
 125   22:00   0.00   53.6    71    1.2   264     2.9   971.0    0.00 
 125   22:10   0.00   53.2    72    0.3   208     1.2   971.0    0.00 
 125   22:20   0.00   52.8    73    0.4   203     1.4   971.1    0.00 
 125   22:30   0.00   52.5    74    0.7   263     2.3   971.1    0.00 
 125   22:40   0.00   52.4    74    1.3   271     3.3   971.3    0.00 
 125   22:50   0.00   52.1    75    0.8   196     2.8   971.3    0.00 
 125   23:00   0.00   51.8    75    0.0   222     0.4   971.4    0.00 
 125   23:10   0.00   51.8    75    0.3   175     1.4   971.5    0.00 
 125   23:20   0.00   51.8    75    0.6   214     2.1   971.7    0.00 
 125   23:30   0.00   51.1    77    0.3   325     1.2   971.8    0.00 
 125   23:40   0.00   51.0    77    0.3   177     2.3   971.8    0.00 
 125   23:50   0.00   50.7    78    0.0   212     0.5   971.7    0.00 
 126    0:00   0.00   50.9    77    0.0   222     0.4   971.8    0.00 
 126    0:10   0.00   50.8    78    0.5   180     2.1   971.7    0.00 
 126    0:20   0.00   50.6    78    0.5   166     2.3   971.6    0.00 
 126    0:30   0.00   50.9    77    0.8   230     2.6   971.6    0.00 
 126    0:40   0.00   50.6    78    0.5   272     1.3   971.7    0.00 
 126    0:50   0.00   50.4    79    0.7   228     2.6   971.6    0.00 
 126    1:00   0.00   50.3    80    1.8   260     2.6   971.6    0.00 
 126    1:10   0.00   50.1    80    0.6   198     2.1   971.5    0.00 
 126    1:20   0.00   49.5    81    0.1   214     0.7   971.5    0.00 
 126    1:30   0.00   49.2    82    0.4   288     1.3   971.5    0.00 
 126    1:40   0.00   49.1    82    0.6   194     2.0   971.5    0.00 
 126    1:50   0.00   49.2    82    0.5   140     2.3   971.4    0.00 
 126    2:00   0.00   49.2    82    1.0   143     2.0   971.4    0.00 
 126    2:10   0.00   49.0    83    1.6   245     2.9   971.4    0.00 
 126    2:20   0.00   49.3    83    0.4   233     2.3   971.4    0.00 
 126    2:30   0.00   49.1    84    0.7   129     1.5   971.5    0.00 
 126    2:40   0.00   48.9    84    0.8   335     1.9   971.4    0.00 
 126    2:50   0.00   48.7    85    1.3   278     2.1   971.4    0.00 
 126    3:00   0.00   48.5    85    0.5   226     1.4   971.4    0.00 
 126    3:10   0.00   48.4    86    0.2   156     1.6   971.3    0.00 
 126    3:20   0.00   48.4    85    0.9   141     1.9   971.3    0.00 
 126    3:30   0.00   48.4    85    0.5   226     1.7   971.3    0.00 
 126    3:40   0.00   48.5    86    0.8   293     2.2   971.3    0.00 
 126    3:50   0.00   48.5    85    0.2   220     1.5   971.4    0.00 
 126    4:00   0.00   48.2    86    0.2   301     1.2   971.4    0.00 
 126    4:10   0.00   48.2    86    0.5   149     2.0   971.5    0.00 
 126    4:20   0.00   48.4    85    0.7   147     2.0   971.4    0.00 
 126    4:30   0.00   48.2    85    1.2   262     2.3   971.5    0.00 
 126    4:40   0.00   48.1    85    0.2   222     1.0   971.6    0.00 
 126    4:50   0.00   48.4    84    0.3   158     1.7   971.6    0.00 
 126    5:00   0.00   48.6    82    1.1   186     2.3   971.6    0.00 
 126    5:10   0.01   48.3    83    0.7   303     2.5   971.7    0.00 
 126    5:20   0.01   48.3    84    1.0   255     2.4   971.9    0.00 
 126    5:30   0.01   48.6    82    0.6   142     2.2   972.0    0.00 
 126    5:40   0.02   48.7    83    0.2   313     1.1   972.1    0.00 
 126    5:50   0.02   48.8    83    0.0     0     0.0   972.1    0.00 
 126    6:00   0.09   49.9    82    0.1   277     1.0   972.2    0.00 
 126    6:10   0.14   53.0    76    1.1   281     2.3   972.2    0.00 
 126    6:20   0.17   54.0    72    0.2   294     1.6   972.4    0.00 
 126    6:30   0.20   55.4    70    1.2   103     2.8   972.4    0.00 
 126    6:40   0.23   54.9    70    1.7    98     3.1   972.5    0.00 
 126    6:50   0.26   57.1    66    0.3    22     1.8   972.5    0.00 
 126    7:00   0.29   58.6    64    0.6   292     1.8   972.5    0.00 
 126    7:10   0.33   60.5    60    1.4   297     2.2   972.5    0.00 
 126    7:20   0.36   61.7    59    2.6   282     4.2   972.5    0.00 
 126    7:30   0.39   62.0    59    2.4   280     3.8   972.6    0.00 
 126    7:40   0.42   62.1    58    2.4   276     4.0   972.6    0.00 
 126    7:50   0.46   61.9    59    1.7   290     3.5   972.6    0.00 
 126    8:00   0.49   63.0    58    2.3   281     5.8   972.6    0.00 
 126    8:10   0.52   65.3    54    3.1   277     5.6   972.6    0.00 
 126    8:20   0.55   65.1    54    2.7   279     5.5   972.6    0.00 
 126    8:30   0.57   65.0    55    2.3   283     5.0   972.5    0.00 
 126    8:40   0.60   66.0    54    3.4   277     7.2   972.5    0.00 
 126    8:50   0.63   68.2    50    3.5   280     7.2   972.4    0.00 
 126    9:00   0.66   68.0    50    2.7   279     6.5   972.5    0.00 
 126    9:10   0.69   69.0    49    2.9   288     6.0   972.6    0.00 
 126    9:20   0.71   68.8    51    3.3   287     6.8   972.7    0.00 
 126    9:30   0.73   68.8    52    3.6   284     8.0   972.7    0.00 
 126    9:40   0.75   69.7    51    4.0   281     7.2   972.6    0.00 
 126    9:50   0.77   70.1    49    3.1   279     7.7   972.6    0.00 
 126   10:00   0.79   70.8    49    4.0   281     8.0   972.6    0.00 
 126   10:10   0.81   70.9    48    3.7   287     7.8   972.6    0.00 
 126   10:20   0.82   72.1    45    3.6   285     8.3   972.5    0.00 
 126   10:30   0.84   73.5    44    3.7   289     8.5   972.4    0.00 
 126   10:40   0.85   73.5    44    4.0   280     8.7   972.4    0.00 
 126   10:50   0.86   73.8    44    3.5   283     8.3   972.4    0.00 
 126   11:00   0.87   73.1    45    4.2   297     9.4   972.4    0.00 
 126   11:10   0.88   73.6    44    3.4   282     8.3   972.3    0.00 
 126   11:20   0.88   74.2    43    4.1   282     9.1   972.2    0.00 
 126   11:30   0.89   73.3    45    3.6   284     7.8   972.0    0.00 

Return to Stunt Ranch Reserve graphs page.


Western Regional Climate Center,wrcc@dri.edu